createdAt,value
2023-04-04T00:34:14.529Z,99.90
2023-04-04T00:50:05.795Z,99.90
2023-04-04T00:55:08.934Z,99.90
2023-04-04T01:00:13.152Z,99.90
2023-04-04T01:05:15.986Z,99.90
2023-04-04T01:10:18.838Z,99.90
2023-04-04T01:20:32.536Z,99.90
2023-04-04T01:25:35.321Z,99.90
2023-04-04T01:30:43.153Z,99.90
2023-04-04T01:40:54.839Z,99.90
2023-04-04T01:46:02.033Z,99.90
2023-04-04T01:51:06.223Z,99.90
2023-04-04T01:56:09.497Z,99.90
2023-04-04T02:06:16.999Z,99.90
2023-04-04T02:21:29.898Z,99.90
2023-04-04T02:36:38.711Z,99.90
2023-04-04T02:56:55.989Z,99.90
2023-04-04T03:17:10.769Z,99.90
2023-04-04T03:52:39.880Z,99.90
2023-04-04T04:07:52.929Z,99.90
2023-04-04T05:03:44.764Z,99.90
2023-04-04T05:14:06.842Z,99.90
2023-04-04T05:19:14.573Z,99.90
2023-04-04T05:44:41.142Z,99.90
2023-04-04T05:49:44.897Z,99.90
2023-04-04T06:05:02.685Z,99.90
2023-04-04T06:25:26.920Z,99.90
2023-04-04T06:30:36.328Z,99.90
2023-04-04T06:50:49.923Z,99.90
2023-04-04T06:55:54.190Z,99.90
2023-04-04T07:06:04.428Z,99.90
2023-04-04T07:11:08.188Z,99.90
2023-04-04T07:16:11.850Z,99.90
2023-04-04T07:21:14.410Z,99.90
2023-04-04T07:31:20.270Z,99.90
2023-04-04T07:36:22.801Z,99.90
2023-04-04T07:41:26.272Z,99.10
2023-04-04T07:46:28.850Z,98.50
2023-04-04T07:51:31.664Z,95.10
2023-04-04T07:56:34.211Z,95.90
2023-04-04T08:01:37.804Z,93.60
2023-04-04T08:06:40.304Z,94.20
2023-04-04T08:11:42.784Z,94.60
2023-04-04T08:21:48.780Z,94.10
2023-04-04T08:37:10.707Z,90.50
2023-04-04T08:42:16.904Z,90.60
2023-04-04T08:47:21.564Z,89.90
2023-04-04T08:57:29.270Z,91.80
2023-04-04T09:02:31.739Z,92.30
2023-04-04T09:07:38.535Z,92.70
2023-04-04T09:12:44.925Z,92.50
2023-04-04T09:17:47.489Z,91.00
2023-04-04T09:22:50.012Z,88.90
2023-04-04T09:27:58.032Z,88.90
2023-04-04T09:33:02.683Z,87.30
2023-04-04T09:38:08.753Z,87.10
2023-04-04T09:43:12.595Z,84.20
2023-04-04T09:48:31.057Z,84.60
2023-04-04T09:53:38.565Z,86.90
2023-04-04T09:58:52.378Z,82.00
2023-04-04T10:04:05.215Z,81.40
2023-04-04T10:09:08.446Z,81.40
2023-04-04T10:14:11.729Z,81.30
2023-04-04T10:19:17.895Z,81.90
2023-04-04T10:24:20.495Z,81.00
2023-04-04T10:29:23.722Z,81.60
2023-04-04T10:34:33.082Z,80.70
2023-04-04T10:39:50.020Z,82.00
2023-04-04T10:44:54.023Z,78.80
2023-04-04T10:49:57.375Z,80.20
2023-04-04T10:55:04.359Z,80.90
2023-04-04T11:00:10.800Z,78.70
2023-04-04T11:05:34.239Z,78.20
2023-04-04T11:10:38.943Z,77.30
2023-04-04T11:15:58.134Z,78.40
2023-04-04T11:21:07.519Z,79.50
2023-04-04T11:26:10.947Z,81.60
2023-04-04T11:31:20.784Z,80.90
2023-04-04T11:36:45.351Z,81.50
2023-04-04T11:42:08.456Z,80.80
2023-04-04T11:47:12.206Z,80.70
2023-04-04T11:52:17.756Z,81.20
2023-04-04T11:57:21.899Z,79.80
2023-04-04T12:02:31.774Z,79.80
2023-04-04T12:07:35.535Z,81.50
2023-04-04T12:12:39.567Z,82.60
2023-04-04T12:17:44.359Z,83.30
2023-04-04T12:22:51.101Z,82.50
2023-04-04T12:27:54.594Z,83.90
2023-04-04T12:32:58.929Z,85.40
2023-04-04T12:38:03.927Z,82.70
2023-04-04T12:43:08.065Z,79.60
2023-04-04T12:48:15.160Z,80.10
2023-04-04T12:58:29.437Z,80.10
2023-04-04T13:03:34.778Z,79.60
2023-04-04T13:13:44.232Z,80.40
2023-04-04T13:18:48.397Z,81.30
2023-04-04T13:23:51.032Z,84.50
2023-04-04T13:28:53.572Z,85.90
2023-04-04T13:33:56.103Z,85.90
2023-04-04T13:44:01.644Z,85.60
2023-04-04T13:59:11.629Z,86.60
2023-04-04T14:04:23.209Z,84.60
2023-04-04T14:09:26.341Z,85.30
2023-04-04T14:14:29.085Z,81.20
2023-04-04T14:19:31.596Z,79.70
2023-04-04T14:24:34.261Z,80.60
2023-04-04T14:29:36.821Z,81.80
2023-04-04T14:34:39.217Z,81.90
2023-04-04T14:39:41.908Z,81.10
2023-04-04T14:44:44.705Z,81.60
2023-04-04T14:49:47.292Z,82.30
2023-04-04T14:54:49.909Z,82.00
2023-04-04T14:59:52.378Z,83.10
2023-04-04T15:04:55.007Z,82.40
2023-04-04T15:09:57.980Z,84.30
2023-04-04T15:15:00.669Z,85.20
2023-04-04T15:20:03.278Z,86.90
2023-04-04T15:25:06.901Z,83.60
2023-04-04T15:30:12.393Z,85.00
2023-04-04T15:35:20.419Z,83.40
2023-04-04T15:40:22.883Z,83.90
2023-04-04T15:45:25.463Z,85.70
2023-04-04T15:50:27.953Z,84.60
2023-04-04T15:55:30.599Z,84.00
2023-04-04T16:00:33.794Z,84.00
2023-04-04T16:05:36.408Z,87.30
2023-04-04T16:10:39.653Z,87.60
2023-04-04T16:15:42.572Z,89.00
2023-04-04T16:20:45.250Z,89.50
2023-04-04T16:25:47.701Z,91.20
2023-04-04T16:30:51.123Z,91.90
2023-04-04T16:35:54.498Z,92.00
2023-04-04T16:41:02.941Z,90.00
2023-04-04T16:46:06.162Z,91.70
2023-04-04T16:51:08.802Z,94.10
2023-04-04T16:56:11.339Z,99.90
2023-04-04T17:01:15.301Z,99.90
2023-04-04T17:06:17.885Z,99.90
2023-04-04T17:16:23.803Z,99.90
2023-04-04T17:21:26.664Z,99.00
2023-04-04T17:26:29.121Z,99.90
2023-04-04T17:31:32.756Z,98.80
2023-04-04T17:36:35.687Z,99.90
2023-04-04T17:46:41.571Z,99.90
2023-04-04T17:51:44.506Z,99.90
2023-04-04T18:01:51.081Z,99.90
2023-04-04T18:06:54.609Z,99.90
2023-04-04T18:22:04.166Z,99.90
2023-04-04T18:42:17.918Z,99.90
2023-04-04T18:47:21.502Z,99.90
2023-04-04T19:02:32.503Z,99.90
2023-04-04T19:07:36.360Z,99.90
2023-04-04T19:37:54.818Z,99.90
2023-04-04T19:48:01.725Z,99.90
2023-04-04T19:53:05.996Z,99.90
2023-04-04T19:58:19.787Z,99.90
2023-04-04T20:03:37.145Z,99.90
2023-04-04T20:08:43.997Z,99.90
2023-04-04T20:23:54.265Z,99.90
2023-04-04T20:28:57.772Z,99.90
2023-04-04T20:39:28.225Z,99.90
2023-04-04T20:44:30.912Z,99.90
2023-04-04T20:59:41.259Z,99.90
2023-04-04T21:04:45.851Z,99.90
2023-04-04T21:14:51.227Z,99.90
2023-04-04T21:19:57.656Z,99.90
2023-04-04T21:25:00.318Z,99.90
2023-04-04T21:30:08.318Z,99.90
2023-04-04T21:35:11.209Z,99.90
2023-04-04T21:40:15.973Z,99.90
2023-04-04T22:00:31.334Z,99.90
2023-04-04T22:10:52.329Z,99.90
2023-04-04T22:21:06.979Z,99.90
2023-04-04T22:26:13.920Z,99.90
2023-04-04T22:41:29.158Z,99.90
2023-04-04T22:46:32.272Z,99.90
2023-04-04T22:51:43.708Z,99.90
2023-04-04T23:17:02.299Z,99.90
2023-04-04T23:22:05.111Z,99.90
2023-04-04T23:47:20.965Z,99.90
